sensor_id;sensor_type;location;lat;lon;timestamp;temperature;humidity
16038;DHT22;8123;50.906;6.172;2022-11-15T00:01:34;12.00;99.90
16038;DHT22;8123;50.906;6.172;2022-11-15T00:04:03;12.10;99.90
16038;DHT22;8123;50.906;6.172;2022-11-15T00:06:29;12.10;99.90
16038;DHT22;8123;50.906;6.172;2022-11-15T00:08:57;12.20;99.90
16038;DHT22;8123;50.906;6.172;2022-11-15T00:11:23;12.20;99.90
16038;DHT22;8123;50.906;6.172;2022-11-15T00:13:49;12.20;99.90
16038;DHT22;8123;50.906;6.172;2022-11-15T00:16:15;12.10;99.90
16038;DHT22;8123;50.906;6.172;2022-11-15T00:18:41;12.10;99.90
16038;DHT22;8123;50.906;6.172;2022-11-15T00:21:09;12.30;99.90
16038;DHT22;8123;50.906;6.172;2022-11-15T00:23:35;12.10;99.90
16038;DHT22;8123;50.906;6.172;2022-11-15T00:26:01;12.00;99.90
16038;DHT22;8123;50.906;6.172;2022-11-15T00:28:27;12.30;99.90
16038;DHT22;8123;50.906;6.172;2022-11-15T00:30:53;12.00;99.90
16038;DHT22;8123;50.906;6.172;2022-11-15T00:33:18;12.10;99.90
16038;DHT22;8123;50.906;6.172;2022-11-15T00:35:44;12.10;99.90
16038;DHT22;8123;50.906;6.172;2022-11-15T00:38:10;12.10;99.90
16038;DHT22;8123;50.906;6.172;2022-11-15T00:40:35;12.10;99.90
16038;DHT22;8123;50.906;6.172;2022-11-15T00:43:01;12.10;99.90
16038;DHT22;8123;50.906;6.172;2022-11-15T00:45:27;12.10;99.90
16038;DHT22;8123;50.906;6.172;2022-11-15T00:47:52;12.20;99.90
16038;DHT22;8123;50.906;6.172;2022-11-15T00:50:18;12.20;99.90
16038;DHT22;8123;50.906;6.172;2022-11-15T00:52:45;12.10;99.90
16038;DHT22;8123;50.906;6.172;2022-11-15T00:55:15;12.10;99.90
16038;DHT22;8123;50.906;6.172;2022-11-15T00:57:41;12.10;99.90
16038;DHT22;8123;50.906;6.172;2022-11-15T01:00:07;12.10;99.90
16038;DHT22;8123;50.906;6.172;2022-11-15T01:02:34;12.00;99.90
16038;DHT22;8123;50.906;6.172;2022-11-15T01:04:59;12.00;99.90
16038;DHT22;8123;50.906;6.172;2022-11-15T01:07:25;12.00;99.90
16038;DHT22;8123;50.906;6.172;2022-11-15T01:09:50;11.90;99.90
16038;DHT22;8123;50.906;6.172;2022-11-15T01:12:16;11.90;99.90
16038;DHT22;8123;50.906;6.172;2022-11-15T01:14:42;11.90;99.90
16038;DHT22;8123;50.906;6.172;2022-11-15T01:17:07;11.90;99.90
16038;DHT22;8123;50.906;6.172;2022-11-15T01:19:33;11.80;99.90
16038;DHT22;8123;50.906;6.172;2022-11-15T01:21:59;11.70;99.90
16038;DHT22;8123;50.906;6.172;2022-11-15T01:24:24;11.60;99.90
16038;DHT22;8123;50.906;6.172;2022-11-15T01:26:50;11.60;99.90
16038;DHT22;8123;50.906;6.172;2022-11-15T01:29:16;11.40;99.90
16038;DHT22;8123;50.906;6.172;2022-11-15T01:31:41;11.40;99.90
16038;DHT22;8123;50.906;6.172;2022-11-15T01:34:07;11.30;99.90
16038;DHT22;8123;50.906;6.172;2022-11-15T01:36:32;11.20;99.90
16038;DHT22;8123;50.906;6.172;2022-11-15T01:38:58;11.20;99.90
16038;DHT22;8123;50.906;6.172;2022-11-15T01:41:30;11.20;99.90
16038;DHT22;8123;50.906;6.172;2022-11-15T01:46:45;11.20;99.90
16038;DHT22;8123;50.906;6.172;2022-11-15T01:49:14;11.30;99.90
16038;DHT22;8123;50.906;6.172;2022-11-15T01:51:41;11.30;99.90
16038;DHT22;8123;50.906;6.172;2022-11-15T01:54:10;11.30;99.90
16038;DHT22;8123;50.906;6.172;2022-11-15T01:56:43;11.30;99.90
16038;DHT22;8123;50.906;6.172;2022-11-15T01:59:11;11.30;99.90
16038;DHT22;8123;50.906;6.172;2022-11-15T02:01:37;11.30;99.90
16038;DHT22;8123;50.906;6.172;2022-11-15T02:04:23;11.30;99.90
16038;DHT22;8123;50.906;6.172;2022-11-15T02:06:50;11.30;99.90
16038;DHT22;8123;50.906;6.172;2022-11-15T02:09:16;11.20;99.90
16038;DHT22;8123;50.906;6.172;2022-11-15T02:11:43;11.30;99.90
16038;DHT22;8123;50.906;6.172;2022-11-15T02:14:10;11.30;99.90
16038;DHT22;8123;50.906;6.172;2022-11-15T02:25:09;11.30;99.90
16038;DHT22;8123;50.906;6.172;2022-11-15T02:30:40;11.30;99.90
16038;DHT22;8123;50.906;6.172;2022-11-15T02:33:36;11.30;99.90
16038;DHT22;8123;50.906;6.172;2022-11-15T02:36:36;11.30;99.90
16038;DHT22;8123;50.906;6.172;2022-11-15T02:41:48;11.30;99.90
16038;DHT22;8123;50.906;6.172;2022-11-15T02:44:25;11.60;99.90
16038;DHT22;8123;50.906;6.172;2022-11-15T02:46:58;11.40;99.90
16038;DHT22;8123;50.906;6.172;2022-11-15T02:49:48;11.50;99.90
16038;DHT22;8123;50.906;6.172;2022-11-15T02:52:15;11.80;99.90
16038;DHT22;8123;50.906;6.172;2022-11-15T02:54:42;11.60;99.90
16038;DHT22;8123;50.906;6.172;2022-11-15T02:57:15;11.60;99.90
16038;DHT22;8123;50.906;6.172;2022-11-15T03:04:55;11.70;99.90
16038;DHT22;8123;50.906;6.172;2022-11-15T03:10:21;11.80;99.90
16038;DHT22;8123;50.906;6.172;2022-11-15T03:13:00;11.70;99.90
16038;DHT22;8123;50.906;6.172;2022-11-15T03:15:35;11.80;99.90
16038;DHT22;8123;50.906;6.172;2022-11-15T03:18:10;11.80;99.90
16038;DHT22;8123;50.906;6.172;2022-11-15T03:20:38;11.90;99.90
16038;DHT22;8123;50.906;6.172;2022-11-15T03:23:08;11.90;99.90
16038;DHT22;8123;50.906;6.172;2022-11-15T03:25:37;11.90;99.90
16038;DHT22;8123;50.906;6.172;2022-11-15T03:28:05;11.90;99.90
16038;DHT22;8123;50.906;6.172;2022-11-15T03:30:34;11.90;99.90
16038;DHT22;8123;50.906;6.172;2022-11-15T03:33:00;11.90;99.90
16038;DHT22;8123;50.906;6.172;2022-11-15T03:35:33;11.90;99.90
16038;DHT22;8123;50.906;6.172;2022-11-15T03:38:15;11.90;99.90
16038;DHT22;8123;50.906;6.172;2022-11-15T03:40:47;11.90;99.90
16038;DHT22;8123;50.906;6.172;2022-11-15T03:43:34;11.90;99.90
16038;DHT22;8123;50.906;6.172;2022-11-15T03:46:15;11.90;99.90
16038;DHT22;8123;50.906;6.172;2022-11-15T03:48:52;11.90;99.90
16038;DHT22;8123;50.906;6.172;2022-11-15T03:51:19;11.90;99.90
16038;DHT22;8123;50.906;6.172;2022-11-15T03:53:45;11.90;99.90
16038;DHT22;8123;50.906;6.172;2022-11-15T03:56:11;11.90;99.90
16038;DHT22;8123;50.906;6.172;2022-11-15T03:58:37;11.80;99.90
16038;DHT22;8123;50.906;6.172;2022-11-15T04:01:03;11.80;99.90
16038;DHT22;8123;50.906;6.172;2022-11-15T04:03:28;11.80;99.90
16038;DHT22;8123;50.906;6.172;2022-11-15T04:05:54;11.70;99.90
16038;DHT22;8123;50.906;6.172;2022-11-15T04:08:20;11.70;99.90
16038;DHT22;8123;50.906;6.172;2022-11-15T04:10:48;11.70;99.90
16038;DHT22;8123;50.906;6.172;2022-11-15T04:13:13;11.60;99.90
16038;DHT22;8123;50.906;6.172;2022-11-15T04:15:39;11.50;99.90
16038;DHT22;8123;50.906;6.172;2022-11-15T04:18:04;11.50;99.90
16038;DHT22;8123;50.906;6.172;2022-11-15T04:20:31;11.50;99.90
16038;DHT22;8123;50.906;6.172;2022-11-15T04:23:35;11.50;99.90
16038;DHT22;8123;50.906;6.172;2022-11-15T04:26:21;11.50;99.90
16038;DHT22;8123;50.906;6.172;2022-11-15T04:28:47;11.50;99.90
16038;DHT22;8123;50.906;6.172;2022-11-15T04:31:32;11.60;99.90
16038;DHT22;8123;50.906;6.172;2022-11-15T04:33:57;11.60;99.90
16038;DHT22;8123;50.906;6.172;2022-11-15T04:36:23;11.60;99.90
16038;DHT22;8123;50.906;6.172;2022-11-15T04:39:08;11.60;99.90
16038;DHT22;8123;50.906;6.172;2022-11-15T04:41:33;11.70;99.90
16038;DHT22;8123;50.906;6.172;2022-11-15T04:43:59;11.70;99.90
16038;DHT22;8123;50.906;6.172;2022-11-15T04:46:25;11.70;99.90
16038;DHT22;8123;50.906;6.172;2022-11-15T04:48:52;11.80;99.90
16038;DHT22;8123;50.906;6.172;2022-11-15T04:51:18;11.80;99.90
16038;DHT22;8123;50.906;6.172;2022-11-15T04:53:44;11.80;99.90
16038;DHT22;8123;50.906;6.172;2022-11-15T04:56:09;11.80;99.90
16038;DHT22;8123;50.906;6.172;2022-11-15T04:58:35;11.90;99.90
16038;DHT22;8123;50.906;6.172;2022-11-15T05:01:11;12.00;99.90
16038;DHT22;8123;50.906;6.172;2022-11-15T05:03:39;12.10;99.90
16038;DHT22;8123;50.906;6.172;2022-11-15T05:06:23;12.00;99.90
16038;DHT22;8123;50.906;6.172;2022-11-15T05:08:49;12.10;99.90
16038;DHT22;8123;50.906;6.172;2022-11-15T05:11:14;12.00;99.90
16038;DHT22;8123;50.906;6.172;2022-11-15T05:13:40;12.00;99.90
16038;DHT22;8123;50.906;6.172;2022-11-15T05:16:06;12.00;99.90
16038;DHT22;8123;50.906;6.172;2022-11-15T05:18:31;12.00;99.90
16038;DHT22;8123;50.906;6.172;2022-11-15T05:21:03;12.00;99.90
16038;DHT22;8123;50.906;6.172;2022-11-15T05:23:29;11.90;99.90
16038;DHT22;8123;50.906;6.172;2022-11-15T05:26:02;11.90;99.90
16038;DHT22;8123;50.906;6.172;2022-11-15T05:28:28;11.80;99.90
16038;DHT22;8123;50.906;6.172;2022-11-15T05:30:53;11.70;99.90
16038;DHT22;8123;50.906;6.172;2022-11-15T05:33:25;11.70;99.90
16038;DHT22;8123;50.906;6.172;2022-11-15T05:35:55;11.70;99.90
16038;DHT22;8123;50.906;6.172;2022-11-15T05:38:23;11.70;99.90
16038;DHT22;8123;50.906;6.172;2022-11-15T05:40:49;11.70;99.90
16038;DHT22;8123;50.906;6.172;2022-11-15T05:43:14;11.70;99.90
16038;DHT22;8123;50.906;6.172;2022-11-15T05:45:40;11.70;99.90
16038;DHT22;8123;50.906;6.172;2022-11-15T05:48:08;11.70;99.90
16038;DHT22;8123;50.906;6.172;2022-11-15T05:50:38;11.80;99.90
16038;DHT22;8123;50.906;6.172;2022-11-15T05:53:04;11.80;99.90
16038;DHT22;8123;50.906;6.172;2022-11-15T05:55:31;11.90;99.90
16038;DHT22;8123;50.906;6.172;2022-11-15T05:57:57;12.00;99.90
16038;DHT22;8123;50.906;6.172;2022-11-15T06:00:23;12.00;99.90
16038;DHT22;8123;50.906;6.172;2022-11-15T06:02:49;12.00;99.90
16038;DHT22;8123;50.906;6.172;2022-11-15T06:05:14;12.00;99.90
16038;DHT22;8123;50.906;6.172;2022-11-15T06:07:40;12.00;99.90
16038;DHT22;8123;50.906;6.172;2022-11-15T06:10:06;12.10;99.90
16038;DHT22;8123;50.906;6.172;2022-11-15T06:12:32;12.00;99.90
16038;DHT22;8123;50.906;6.172;2022-11-15T06:14:57;12.10;99.90
16038;DHT22;8123;50.906;6.172;2022-11-15T06:17:23;12.00;99.90
16038;DHT22;8123;50.906;6.172;2022-11-15T06:19:48;12.10;99.90
16038;DHT22;8123;50.906;6.172;2022-11-15T06:22:14;11.90;99.90
16038;DHT22;8123;50.906;6.172;2022-11-15T06:24:40;11.90;99.90
16038;DHT22;8123;50.906;6.172;2022-11-15T06:27:05;11.70;99.90
16038;DHT22;8123;50.906;6.172;2022-11-15T06:29:31;11.70;99.90
16038;DHT22;8123;50.906;6.172;2022-11-15T06:31:56;11.60;99.90
16038;DHT22;8123;50.906;6.172;2022-11-15T06:34:22;11.50;99.90
16038;DHT22;8123;50.906;6.172;2022-11-15T06:36:48;11.40;99.90
16038;DHT22;8123;50.906;6.172;2022-11-15T06:39:13;11.40;99.90
16038;DHT22;8123;50.906;6.172;2022-11-15T06:41:39;11.30;99.90
16038;DHT22;8123;50.906;6.172;2022-11-15T06:44:04;11.20;99.90
16038;DHT22;8123;50.906;6.172;2022-11-15T06:46:30;11.20;99.90
16038;DHT22;8123;50.906;6.172;2022-11-15T06:48:56;11.20;99.90
16038;DHT22;8123;50.906;6.172;2022-11-15T06:51:21;11.20;99.90
16038;DHT22;8123;50.906;6.172;2022-11-15T06:53:47;11.20;99.90
16038;DHT22;8123;50.906;6.172;2022-11-15T06:56:12;11.20;99.90
16038;DHT22;8123;50.906;6.172;2022-11-15T06:58:38;11.10;99.90
16038;DHT22;8123;50.906;6.172;2022-11-15T07:01:06;11.20;99.90
16038;DHT22;8123;50.906;6.172;2022-11-15T07:03:34;11.20;99.90
16038;DHT22;8123;50.906;6.172;2022-11-15T07:06:00;11.10;99.90
16038;DHT22;8123;50.906;6.172;2022-11-15T07:08:27;11.10;99.90
16038;DHT22;8123;50.906;6.172;2022-11-15T07:10:53;11.10;99.90
16038;DHT22;8123;50.906;6.172;2022-11-15T07:13:19;11.10;99.90
16038;DHT22;8123;50.906;6.172;2022-11-15T07:15:45;11.00;99.90
16038;DHT22;8123;50.906;6.172;2022-11-15T07:18:11;11.10;99.90
16038;DHT22;8123;50.906;6.172;2022-11-15T07:20:36;11.00;99.90
16038;DHT22;8123;50.906;6.172;2022-11-15T07:23:03;11.10;99.90
16038;DHT22;8123;50.906;6.172;2022-11-15T07:25:30;11.00;99.90
16038;DHT22;8123;50.906;6.172;2022-11-15T07:27:57;11.00;99.90
16038;DHT22;8123;50.906;6.172;2022-11-15T07:30:23;11.00;99.90
16038;DHT22;8123;50.906;6.172;2022-11-15T07:32:53;11.30;99.90
16038;DHT22;8123;50.906;6.172;2022-11-15T07:35:19;11.00;99.90
16038;DHT22;8123;50.906;6.172;2022-11-15T07:37:59;10.90;99.90
16038;DHT22;8123;50.906;6.172;2022-11-15T07:40:31;10.90;99.90
16038;DHT22;8123;50.906;6.172;2022-11-15T07:43:01;10.90;99.90
16038;DHT22;8123;50.906;6.172;2022-11-15T07:45:27;10.80;99.90
16038;DHT22;8123;50.906;6.172;2022-11-15T07:47:54;11.20;99.90
16038;DHT22;8123;50.906;6.172;2022-11-15T07:50:21;10.80;99.90
16038;DHT22;8123;50.906;6.172;2022-11-15T07:52:47;10.80;99.90
16038;DHT22;8123;50.906;6.172;2022-11-15T07:55:12;10.80;99.90
16038;DHT22;8123;50.906;6.172;2022-11-15T07:57:38;10.80;99.90
16038;DHT22;8123;50.906;6.172;2022-11-15T08:00:05;10.80;99.90
16038;DHT22;8123;50.906;6.172;2022-11-15T08:02:31;10.80;99.90
16038;DHT22;8123;50.906;6.172;2022-11-15T08:04:57;10.80;99.90
16038;DHT22;8123;50.906;6.172;2022-11-15T08:07:22;10.80;99.90
16038;DHT22;8123;50.906;6.172;2022-11-15T08:09:48;10.90;99.90
16038;DHT22;8123;50.906;6.172;2022-11-15T08:12:14;10.80;99.90
16038;DHT22;8123;50.906;6.172;2022-11-15T08:14:39;10.80;99.90
16038;DHT22;8123;50.906;6.172;2022-11-15T08:17:05;10.80;99.90
16038;DHT22;8123;50.906;6.172;2022-11-15T08:19:31;10.90;99.90
16038;DHT22;8123;50.906;6.172;2022-11-15T08:21:56;10.90;99.90
16038;DHT22;8123;50.906;6.172;2022-11-15T08:24:22;10.90;99.90
16038;DHT22;8123;50.906;6.172;2022-11-15T08:26:48;10.90;99.90
16038;DHT22;8123;50.906;6.172;2022-11-15T08:29:13;11.10;99.90
16038;DHT22;8123;50.906;6.172;2022-11-15T08:31:39;10.70;99.90
16038;DHT22;8123;50.906;6.172;2022-11-15T08:34:05;11.10;99.90
16038;DHT22;8123;50.906;6.172;2022-11-15T08:36:32;10.90;99.90
16038;DHT22;8123;50.906;6.172;2022-11-15T08:38:57;10.90;99.90
16038;DHT22;8123;50.906;6.172;2022-11-15T08:41:27;11.00;99.90
16038;DHT22;8123;50.906;6.172;2022-11-15T08:43:53;10.90;99.90
16038;DHT22;8123;50.906;6.172;2022-11-15T08:46:19;10.90;99.90
16038;DHT22;8123;50.906;6.172;2022-11-15T08:48:44;10.90;99.90
16038;DHT22;8123;50.906;6.172;2022-11-15T08:51:10;11.10;99.90
16038;DHT22;8123;50.906;6.172;2022-11-15T08:53:36;11.00;99.90
16038;DHT22;8123;50.906;6.172;2022-11-15T08:56:02;11.00;99.90
16038;DHT22;8123;50.906;6.172;2022-11-15T08:58:27;11.00;99.90
16038;DHT22;8123;50.906;6.172;2022-11-15T09:00:53;11.00;99.90
16038;DHT22;8123;50.906;6.172;2022-11-15T09:03:19;11.00;99.90
16038;DHT22;8123;50.906;6.172;2022-11-15T09:05:44;11.00;99.90
16038;DHT22;8123;50.906;6.172;2022-11-15T09:08:10;11.00;99.90
16038;DHT22;8123;50.906;6.172;2022-11-15T09:10:38;11.00;99.90
16038;DHT22;8123;50.906;6.172;2022-11-15T09:13:03;11.10;99.90
16038;DHT22;8123;50.906;6.172;2022-11-15T09:15:29;11.30;99.90
16038;DHT22;8123;50.906;6.172;2022-11-15T09:17:58;11.10;99.90
16038;DHT22;8123;50.906;6.172;2022-11-15T09:20:23;11.10;99.90
16038;DHT22;8123;50.906;6.172;2022-11-15T09:22:49;11.20;99.90
16038;DHT22;8123;50.906;6.172;2022-11-15T09:25:15;11.20;99.90
16038;DHT22;8123;50.906;6.172;2022-11-15T09:27:40;11.30;99.90
16038;DHT22;8123;50.906;6.172;2022-11-15T09:30:06;11.30;99.90
16038;DHT22;8123;50.906;6.172;2022-11-15T09:32:32;11.30;99.90
16038;DHT22;8123;50.906;6.172;2022-11-15T09:34:58;11.30;99.90
16038;DHT22;8123;50.906;6.172;2022-11-15T09:37:23;11.40;99.90
16038;DHT22;8123;50.906;6.172;2022-11-15T09:39:49;11.40;99.90
16038;DHT22;8123;50.906;6.172;2022-11-15T09:42:44;11.40;99.90
16038;DHT22;8123;50.906;6.172;2022-11-15T09:50:47;11.50;99.90
16038;DHT22;8123;50.906;6.172;2022-11-15T09:53:24;11.50;99.90
16038;DHT22;8123;50.906;6.172;2022-11-15T09:58:44;11.60;99.90
16038;DHT22;8123;50.906;6.172;2022-11-15T10:04:04;11.60;99.90
16038;DHT22;8123;50.906;6.172;2022-11-15T10:06:31;11.70;99.90
16038;DHT22;8123;50.906;6.172;2022-11-15T10:09:04;11.70;99.90
16038;DHT22;8123;50.906;6.172;2022-11-15T10:11:35;11.80;99.90
16038;DHT22;8123;50.906;6.172;2022-11-15T10:14:05;11.80;99.90
16038;DHT22;8123;50.906;6.172;2022-11-15T10:19:28;11.80;99.90
16038;DHT22;8123;50.906;6.172;2022-11-15T10:24:44;11.80;99.90
16038;DHT22;8123;50.906;6.172;2022-11-15T10:27:16;11.90;99.90
16038;DHT22;8123;50.906;6.172;2022-11-15T10:29:49;12.00;99.90
16038;DHT22;8123;50.906;6.172;2022-11-15T10:32:19;12.00;99.90
16038;DHT22;8123;50.906;6.172;2022-11-15T10:34:47;12.10;99.90
16038;DHT22;8123;50.906;6.172;2022-11-15T10:37:13;12.20;99.90
16038;DHT22;8123;50.906;6.172;2022-11-15T10:39:39;12.30;99.90
16038;DHT22;8123;50.906;6.172;2022-11-15T10:42:27;12.30;99.90
16038;DHT22;8123;50.906;6.172;2022-11-15T10:44:53;12.40;99.90
16038;DHT22;8123;50.906;6.172;2022-11-15T10:47:25;12.40;99.90
16038;DHT22;8123;50.906;6.172;2022-11-15T10:49:59;12.50;99.90
16038;DHT22;8123;50.906;6.172;2022-11-15T10:52:25;12.50;99.90
16038;DHT22;8123;50.906;6.172;2022-11-15T10:55:05;12.60;99.90
16038;DHT22;8123;50.906;6.172;2022-11-15T10:57:36;12.70;99.90
16038;DHT22;8123;50.906;6.172;2022-11-15T11:00:04;12.80;99.90
16038;DHT22;8123;50.906;6.172;2022-11-15T11:02:39;12.80;99.90
16038;DHT22;8123;50.906;6.172;2022-11-15T11:05:38;12.90;99.90
16038;DHT22;8123;50.906;6.172;2022-11-15T11:10:58;13.10;99.90
16038;DHT22;8123;50.906;6.172;2022-11-15T11:13:25;13.10;99.90
16038;DHT22;8123;50.906;6.172;2022-11-15T11:18:26;13.30;99.90
16038;DHT22;8123;50.906;6.172;2022-11-15T11:21:09;13.30;99.90
16038;DHT22;8123;50.906;6.172;2022-11-15T11:23:53;13.40;99.90
16038;DHT22;8123;50.906;6.172;2022-11-15T11:32:05;13.50;99.90
16038;DHT22;8123;50.906;6.172;2022-11-15T11:34:50;13.50;99.90
16038;DHT22;8123;50.906;6.172;2022-11-15T11:37:39;13.50;99.90
16038;DHT22;8123;50.906;6.172;2022-11-15T11:40:14;13.60;99.90
16038;DHT22;8123;50.906;6.172;2022-11-15T11:45:21;13.70;99.90
16038;DHT22;8123;50.906;6.172;2022-11-15T11:48:07;13.70;99.90
16038;DHT22;8123;50.906;6.172;2022-11-15T11:50:38;13.80;99.90
16038;DHT22;8123;50.906;6.172;2022-11-15T11:55:53;13.80;99.90
16038;DHT22;8123;50.906;6.172;2022-11-15T11:58:34;13.70;99.90
16038;DHT22;8123;50.906;6.172;2022-11-15T12:01:16;13.80;99.90
16038;DHT22;8123;50.906;6.172;2022-11-15T12:04:05;13.90;99.90
16038;DHT22;8123;50.906;6.172;2022-11-15T12:06:44;13.90;99.90
16038;DHT22;8123;50.906;6.172;2022-11-15T12:09:21;13.90;99.90
16038;DHT22;8123;50.906;6.172;2022-11-15T12:16:55;13.90;99.90
16038;DHT22;8123;50.906;6.172;2022-11-15T12:19:22;14.00;99.90
16038;DHT22;8123;50.906;6.172;2022-11-15T12:22:19;14.20;99.90
16038;DHT22;8123;50.906;6.172;2022-11-15T12:24:51;14.20;99.90
16038;DHT22;8123;50.906;6.172;2022-11-15T12:27:31;14.10;99.90
16038;DHT22;8123;50.906;6.172;2022-11-15T12:30:02;14.20;99.90
16038;DHT22;8123;50.906;6.172;2022-11-15T12:32:32;14.10;99.90
16038;DHT22;8123;50.906;6.172;2022-11-15T12:35:00;14.10;99.90
16038;DHT22;8123;50.906;6.172;2022-11-15T12:42:57;14.20;99.90
16038;DHT22;8123;50.906;6.172;2022-11-15T12:47:53;14.10;99.90
16038;DHT22;8123;50.906;6.172;2022-11-15T12:53:30;14.10;99.90
16038;DHT22;8123;50.906;6.172;2022-11-15T13:04:21;14.20;99.90
16038;DHT22;8123;50.906;6.172;2022-11-15T13:12:47;14.20;99.90
16038;DHT22;8123;50.906;6.172;2022-11-15T13:20:48;14.30;99.90
16038;DHT22;8123;50.906;6.172;2022-11-15T13:23:15;14.40;99.90
16038;DHT22;8123;50.906;6.172;2022-11-15T13:28:42;14.40;99.90
16038;DHT22;8123;50.906;6.172;2022-11-15T13:34:15;14.40;99.90
16038;DHT22;8123;50.906;6.172;2022-11-15T13:36:42;14.40;99.90
16038;DHT22;8123;50.906;6.172;2022-11-15T13:39:29;14.40;99.90
16038;DHT22;8123;50.906;6.172;2022-11-15T13:41:55;14.40;99.90
16038;DHT22;8123;50.906;6.172;2022-11-15T13:44:32;14.40;99.90
16038;DHT22;8123;50.906;6.172;2022-11-15T13:47:15;14.40;99.90
16038;DHT22;8123;50.906;6.172;2022-11-15T13:49:41;14.30;99.90
16038;DHT22;8123;50.906;6.172;2022-11-15T13:52:10;14.30;99.90
16038;DHT22;8123;50.906;6.172;2022-11-15T13:55:30;14.30;99.90
16038;DHT22;8123;50.906;6.172;2022-11-15T14:03:15;14.20;99.90
16038;DHT22;8123;50.906;6.172;2022-11-15T14:05:43;14.20;99.90
16038;DHT22;8123;50.906;6.172;2022-11-15T14:10:44;14.20;99.90
16038;DHT22;8123;50.906;6.172;2022-11-15T14:13:31;14.20;99.90
16038;DHT22;8123;50.906;6.172;2022-11-15T14:16:19;14.20;99.90
16038;DHT22;8123;50.906;6.172;2022-11-15T14:18:49;14.20;99.90
16038;DHT22;8123;50.906;6.172;2022-11-15T14:21:16;14.20;99.90
16038;DHT22;8123;50.906;6.172;2022-11-15T14:23:43;14.20;99.90
16038;DHT22;8123;50.906;6.172;2022-11-15T14:26:31;14.20;99.90
16038;DHT22;8123;50.906;6.172;2022-11-15T14:29:29;14.20;99.90
16038;DHT22;8123;50.906;6.172;2022-11-15T14:34:40;14.20;99.90
16038;DHT22;8123;50.906;6.172;2022-11-15T14:37:26;14.10;99.90
16038;DHT22;8123;50.906;6.172;2022-11-15T14:39:53;14.10;99.90
16038;DHT22;8123;50.906;6.172;2022-11-15T14:42:20;14.10;99.90
16038;DHT22;8123;50.906;6.172;2022-11-15T14:44:47;14.00;99.90
16038;DHT22;8123;50.906;6.172;2022-11-15T14:47:15;14.00;99.90
16038;DHT22;8123;50.906;6.172;2022-11-15T14:49:41;14.00;99.90
16038;DHT22;8123;50.906;6.172;2022-11-15T14:54:47;13.90;99.90
16038;DHT22;8123;50.906;6.172;2022-11-15T14:57:12;13.90;99.90
16038;DHT22;8123;50.906;6.172;2022-11-15T14:59:38;13.90;99.90
16038;DHT22;8123;50.906;6.172;2022-11-15T15:02:13;13.80;99.90
16038;DHT22;8123;50.906;6.172;2022-11-15T15:04:39;13.80;99.90
16038;DHT22;8123;50.906;6.172;2022-11-15T15:07:05;13.80;99.90
16038;DHT22;8123;50.906;6.172;2022-11-15T15:09:31;13.80;99.90
16038;DHT22;8123;50.906;6.172;2022-11-15T15:11:56;13.70;99.90
16038;DHT22;8123;50.906;6.172;2022-11-15T15:14:22;13.70;99.90
16038;DHT22;8123;50.906;6.172;2022-11-15T15:16:47;13.60;99.90
16038;DHT22;8123;50.906;6.172;2022-11-15T15:19:13;13.70;99.90
16038;DHT22;8123;50.906;6.172;2022-11-15T15:21:39;13.70;99.90
16038;DHT22;8123;50.906;6.172;2022-11-15T15:24:04;13.60;99.90
16038;DHT22;8123;50.906;6.172;2022-11-15T15:26:30;13.60;99.90
16038;DHT22;8123;50.906;6.172;2022-11-15T15:28:59;13.60;99.90
16038;DHT22;8123;50.906;6.172;2022-11-15T15:31:24;13.60;99.90
16038;DHT22;8123;50.906;6.172;2022-11-15T15:33:50;13.60;99.90
16038;DHT22;8123;50.906;6.172;2022-11-15T15:36:18;13.60;99.90
16038;DHT22;8123;50.906;6.172;2022-11-15T15:38:44;13.50;99.90
16038;DHT22;8123;50.906;6.172;2022-11-15T15:41:14;13.50;99.90
16038;DHT22;8123;50.906;6.172;2022-11-15T15:43:40;13.50;99.90
16038;DHT22;8123;50.906;6.172;2022-11-15T15:46:15;13.40;99.90
16038;DHT22;8123;50.906;6.172;2022-11-15T15:48:41;13.40;99.90
16038;DHT22;8123;50.906;6.172;2022-11-15T15:51:07;13.40;99.90
16038;DHT22;8123;50.906;6.172;2022-11-15T15:53:33;13.40;99.90
16038;DHT22;8123;50.906;6.172;2022-11-15T15:55:59;13.30;99.90
16038;DHT22;8123;50.906;6.172;2022-11-15T15:58:25;13.30;99.90
16038;DHT22;8123;50.906;6.172;2022-11-15T16:00:51;13.20;99.90
16038;DHT22;8123;50.906;6.172;2022-11-15T16:03:17;13.20;99.90
16038;DHT22;8123;50.906;6.172;2022-11-15T16:05:42;13.20;99.90
16038;DHT22;8123;50.906;6.172;2022-11-15T16:08:19;13.20;99.90
16038;DHT22;8123;50.906;6.172;2022-11-15T16:10:45;13.20;99.90
16038;DHT22;8123;50.906;6.172;2022-11-15T16:13:11;13.20;99.90
16038;DHT22;8123;50.906;6.172;2022-11-15T16:15:37;13.20;99.90
16038;DHT22;8123;50.906;6.172;2022-11-15T16:18:04;13.20;99.90
16038;DHT22;8123;50.906;6.172;2022-11-15T16:20:41;13.20;99.90
16038;DHT22;8123;50.906;6.172;2022-11-15T16:23:09;13.30;99.90
16038;DHT22;8123;50.906;6.172;2022-11-15T16:25:45;13.30;99.90
16038;DHT22;8123;50.906;6.172;2022-11-15T16:28:27;13.30;99.90
16038;DHT22;8123;50.906;6.172;2022-11-15T16:31:10;13.30;99.90
16038;DHT22;8123;50.906;6.172;2022-11-15T16:33:37;13.30;99.90
16038;DHT22;8123;50.906;6.172;2022-11-15T16:36:04;13.30;99.90
16038;DHT22;8123;50.906;6.172;2022-11-15T16:38:30;13.30;99.90
16038;DHT22;8123;50.906;6.172;2022-11-15T16:40:56;13.30;99.90
16038;DHT22;8123;50.906;6.172;2022-11-15T16:43:22;13.20;99.90
16038;DHT22;8123;50.906;6.172;2022-11-15T16:45:49;13.20;99.90
16038;DHT22;8123;50.906;6.172;2022-11-15T16:50:46;13.10;99.90
16038;DHT22;8123;50.906;6.172;2022-11-15T16:53:12;13.00;99.90
16038;DHT22;8123;50.906;6.172;2022-11-15T16:55:37;13.00;99.90
16038;DHT22;8123;50.906;6.172;2022-11-15T16:58:03;12.90;99.90
16038;DHT22;8123;50.906;6.172;2022-11-15T17:00:28;12.90;99.90
16038;DHT22;8123;50.906;6.172;2022-11-15T17:02:54;12.90;99.90
16038;DHT22;8123;50.906;6.172;2022-11-15T17:05:22;12.80;99.90
16038;DHT22;8123;50.906;6.172;2022-11-15T17:07:50;12.80;99.90
16038;DHT22;8123;50.906;6.172;2022-11-15T17:10:19;12.70;99.90
16038;DHT22;8123;50.906;6.172;2022-11-15T17:12:45;12.70;99.90
16038;DHT22;8123;50.906;6.172;2022-11-15T17:15:12;12.70;99.90
16038;DHT22;8123;50.906;6.172;2022-11-15T17:17:39;12.60;99.90
16038;DHT22;8123;50.906;6.172;2022-11-15T17:20:05;12.60;99.90
16038;DHT22;8123;50.906;6.172;2022-11-15T17:22:35;12.60;99.90
16038;DHT22;8123;50.906;6.172;2022-11-15T17:25:01;12.60;99.90
16038;DHT22;8123;50.906;6.172;2022-11-15T17:27:27;12.60;99.90
16038;DHT22;8123;50.906;6.172;2022-11-15T17:29:53;12.50;99.90
16038;DHT22;8123;50.906;6.172;2022-11-15T17:32:18;12.50;99.90
16038;DHT22;8123;50.906;6.172;2022-11-15T17:34:44;12.50;99.90
16038;DHT22;8123;50.906;6.172;2022-11-15T17:37:10;12.40;99.90
16038;DHT22;8123;50.906;6.172;2022-11-15T17:39:35;12.40;99.90
16038;DHT22;8123;50.906;6.172;2022-11-15T17:42:01;12.40;99.90
16038;DHT22;8123;50.906;6.172;2022-11-15T17:44:27;12.40;99.90
16038;DHT22;8123;50.906;6.172;2022-11-15T17:46:52;12.40;99.90
16038;DHT22;8123;50.906;6.172;2022-11-15T17:49:18;12.30;99.90
16038;DHT22;8123;50.906;6.172;2022-11-15T17:51:44;12.20;99.90
16038;DHT22;8123;50.906;6.172;2022-11-15T17:54:10;12.30;99.90